createdAt,value
2019-01-10T00:02:58.217Z,0.60
2019-01-10T00:08:03.462Z,0.60
2019-01-10T00:13:08.437Z,0.50
2019-01-10T00:18:13.420Z,0.50
2019-01-10T00:23:18.517Z,0.40
2019-01-10T00:28:23.508Z,0.40
2019-01-10T00:33:28.503Z,0.30
2019-01-10T00:38:33.532Z,0.10
2019-01-10T00:43:38.543Z,0.00
2019-01-10T00:48:43.512Z,0.00
2019-01-10T00:53:48.619Z,-0.20
2019-01-10T00:58:53.604Z,-0.20
2019-01-10T01:03:58.612Z,-0.20
2019-01-10T01:09:04.586Z,-0.30
2019-01-10T01:14:09.584Z,-0.20
2019-01-10T01:19:14.601Z,-0.20
2019-01-10T01:24:19.668Z,-0.20
2019-01-10T01:29:24.727Z,-0.10
2019-01-10T01:34:29.747Z,-0.10
2019-01-10T01:39:34.766Z,0.00
2019-01-10T01:44:39.786Z,0.00
2019-01-10T01:49:44.762Z,0.00
2019-01-10T01:54:49.900Z,-0.10
2019-01-10T01:59:54.908Z,-0.10
2019-01-10T02:04:59.876Z,0.00
2019-01-10T02:10:07.928Z,-0.10
2019-01-10T02:15:14.385Z,-0.10
2019-01-10T02:20:19.940Z,-0.10
2019-01-10T02:25:25.039Z,-0.10
2019-01-10T02:30:30.049Z,0.00
2019-01-10T02:35:35.024Z,0.20
2019-01-10T02:40:40.023Z,0.20
2019-01-10T02:45:44.995Z,0.30
2019-01-10T02:50:50.173Z,0.30
2019-01-10T02:55:55.143Z,0.30
2019-01-10T03:01:00.115Z,0.30
2019-01-10T03:06:05.583Z,0.30
2019-01-10T03:11:10.611Z,0.30
2019-01-10T03:16:15.648Z,0.30
2019-01-10T03:21:20.635Z,0.30
2019-01-10T03:26:25.651Z,0.40
2019-01-10T03:31:30.643Z,0.40
2019-01-10T03:36:35.637Z,0.40
2019-01-10T03:41:40.684Z,0.40
2019-01-10T03:46:46.014Z,0.50
2019-01-10T03:51:50.967Z,0.50
2019-01-10T03:56:56.094Z,0.50
2019-01-10T04:02:01.125Z,0.60
2019-01-10T04:07:06.114Z,0.60
2019-01-10T04:12:11.110Z,0.60
2019-01-10T04:17:16.302Z,0.60
2019-01-10T04:22:21.313Z,0.60
2019-01-10T04:27:26.303Z,0.60
2019-01-10T04:32:31.270Z,0.60
2019-01-10T04:37:36.513Z,0.60
2019-01-10T04:42:41.498Z,0.60
2019-01-10T04:47:46.605Z,0.60
2019-01-10T04:52:52.605Z,0.60
2019-01-10T04:57:57.631Z,0.60
2019-01-10T05:03:02.644Z,0.60
2019-01-10T05:08:07.631Z,0.50
2019-01-10T05:13:12.609Z,0.50
2019-01-10T05:18:17.588Z,0.40
2019-01-10T05:23:22.604Z,0.40
2019-01-10T05:28:27.562Z,0.40
2019-01-10T05:33:32.546Z,0.40
2019-01-10T05:38:37.528Z,0.40
2019-01-10T05:43:42.528Z,0.40
2019-01-10T05:48:47.547Z,0.40
2019-01-10T05:53:52.526Z,0.40
2019-01-10T05:58:57.500Z,0.40
2019-01-10T06:04:02.497Z,0.40
2019-01-10T06:09:09.203Z,0.50
2019-01-10T06:14:14.172Z,0.50
2019-01-10T06:19:26.728Z,0.50
2019-01-10T06:24:25.780Z,0.50
2019-01-10T06:29:30.743Z,0.50
2019-01-10T06:34:35.728Z,0.50
2019-01-10T06:39:40.732Z,0.50
2019-01-10T06:44:45.788Z,0.50
2019-01-10T06:49:50.752Z,0.60
2019-01-10T06:54:56.663Z,0.60
2019-01-10T07:00:02.115Z,0.60
2019-01-10T07:05:07.118Z,0.70
2019-01-10T07:10:18.895Z,0.70
2019-01-10T07:15:23.879Z,0.70
2019-01-10T07:20:28.866Z,0.70
2019-01-10T07:25:33.861Z,0.80
2019-01-10T07:30:38.828Z,0.80
2019-01-10T07:35:43.837Z,0.80
2019-01-10T07:40:48.837Z,0.90
2019-01-10T07:45:53.871Z,0.90
2019-01-10T07:50:58.867Z,1.00
2019-01-10T07:56:03.840Z,1.00
2019-01-10T08:01:08.834Z,1.00
2019-01-10T08:06:13.941Z,1.00
2019-01-10T08:11:19.536Z,1.00
2019-01-10T08:16:24.611Z,1.00
2019-01-10T08:21:29.636Z,1.10
2019-01-10T08:26:34.615Z,1.10
2019-01-10T08:31:39.593Z,1.10
2019-01-10T08:36:44.613Z,1.10
2019-01-10T08:41:49.616Z,1.20
2019-01-10T08:46:54.868Z,1.30
2019-01-10T08:51:59.847Z,1.40
2019-01-10T08:57:05.000Z,1.50
2019-01-10T09:02:09.977Z,1.50
2019-01-10T09:07:15.005Z,1.60
2019-01-10T09:12:19.995Z,1.70
2019-01-10T09:17:25.039Z,1.80
2019-01-10T09:22:30.070Z,1.90
2019-01-10T09:27:35.083Z,2.00
2019-01-10T09:32:40.060Z,2.10
2019-01-10T09:37:45.071Z,2.10
2019-01-10T09:42:50.076Z,2.20
2019-01-10T09:47:55.156Z,2.40
2019-01-10T09:53:01.996Z,2.50
2019-01-10T09:58:06.996Z,2.60
2019-01-10T10:03:11.995Z,2.70
2019-01-10T10:08:16.994Z,2.80
2019-01-10T10:13:21.978Z,2.80
2019-01-10T10:18:26.962Z,2.90
2019-01-10T10:23:32.171Z,2.90
2019-01-10T10:28:39.244Z,2.90
2019-01-10T10:33:44.205Z,2.90
2019-01-10T10:38:49.213Z,3.00
2019-01-10T10:43:54.204Z,3.10
2019-01-10T10:48:59.250Z,3.10
2019-01-10T10:54:04.572Z,3.20
2019-01-10T10:59:09.607Z,3.30
2019-01-10T11:04:14.590Z,3.40
2019-01-10T11:09:19.604Z,3.50
2019-01-10T11:14:24.616Z,3.50
2019-01-10T11:19:29.601Z,3.60
2019-01-10T11:24:34.577Z,3.70
2019-01-10T11:29:39.592Z,3.70
2019-01-10T11:34:44.588Z,3.80
2019-01-10T11:39:49.607Z,3.90
2019-01-10T11:44:54.635Z,3.90
2019-01-10T11:49:59.628Z,3.90
2019-01-10T11:55:05.267Z,3.90
2019-01-10T12:00:23.216Z,4.00
2019-01-10T12:05:28.215Z,4.10
2019-01-10T12:10:33.200Z,4.10
2019-01-10T12:15:38.227Z,4.20
2019-01-10T12:20:43.308Z,4.30
2019-01-10T12:25:48.347Z,4.50
2019-01-10T12:30:53.323Z,4.50
2019-01-10T12:35:58.319Z,4.40
2019-01-10T12:41:03.307Z,4.40
2019-01-10T12:46:08.290Z,4.30
2019-01-10T12:51:13.276Z,4.30
2019-01-10T12:56:18.611Z,4.40
2019-01-10T13:01:23.856Z,4.40
2019-01-10T13:06:29.644Z,4.30
2019-01-10T13:11:34.646Z,4.40
2019-01-10T13:16:46.781Z,4.30
2019-01-10T13:21:46.444Z,4.20
2019-01-10T13:26:51.502Z,4.20
2019-01-10T13:31:56.477Z,4.20
2019-01-10T13:37:01.579Z,4.10
2019-01-10T13:42:06.572Z,4.10
2019-01-10T13:47:11.563Z,4.00
2019-01-10T13:52:16.548Z,4.10
2019-01-10T13:57:21.823Z,4.10
2019-01-10T14:02:26.835Z,4.00
2019-01-10T14:07:31.911Z,3.90
2019-01-10T14:12:36.916Z,3.90
2019-01-10T14:17:42.458Z,3.80
2019-01-10T14:22:47.755Z,3.80
2019-01-10T14:27:59.340Z,3.80
2019-01-10T14:32:59.729Z,3.80
2019-01-10T14:38:05.492Z,3.70
2019-01-10T14:43:10.494Z,3.70
2019-01-10T14:48:15.824Z,3.60
2019-01-10T14:53:21.128Z,3.60
2019-01-10T14:58:26.121Z,3.60
2019-01-10T15:03:31.097Z,3.60
2019-01-10T15:08:36.082Z,3.60
2019-01-10T15:13:41.056Z,3.50
2019-01-10T15:18:46.105Z,3.40
2019-01-10T15:23:51.098Z,3.40
2019-01-10T15:28:56.095Z,3.30
2019-01-10T15:34:01.094Z,3.20
2019-01-10T15:39:08.211Z,3.20
2019-01-10T15:44:13.183Z,3.10
2019-01-10T15:49:18.188Z,3.10
2019-01-10T15:54:23.219Z,3.10
2019-01-10T15:59:28.221Z,3.00
2019-01-10T16:04:33.219Z,3.00
2019-01-10T16:09:38.217Z,3.00
2019-01-10T16:14:45.032Z,3.00
2019-01-10T16:19:50.020Z,3.00
2019-01-10T16:24:55.086Z,3.00
2019-01-10T16:30:00.056Z,3.00
2019-01-10T16:35:05.946Z,3.10
2019-01-10T16:40:12.208Z,3.10
2019-01-10T16:45:36.308Z,3.00
2019-01-10T16:50:41.301Z,3.00
2019-01-10T16:55:46.296Z,2.90
2019-01-10T17:00:51.313Z,3.00
2019-01-10T17:05:57.361Z,2.90
2019-01-10T17:11:02.352Z,2.90
2019-01-10T17:16:07.579Z,2.80
2019-01-10T17:21:12.621Z,2.90
2019-01-10T17:26:17.619Z,2.80
2019-01-10T17:31:22.612Z,2.80
2019-01-10T17:36:27.609Z,2.80
2019-01-10T17:41:32.601Z,2.80
2019-01-10T17:46:37.583Z,2.90
2019-01-10T17:51:42.873Z,2.90
2019-01-10T17:56:47.883Z,2.90
2019-01-10T18:01:52.909Z,3.00
2019-01-10T18:06:57.902Z,3.00
2019-01-10T18:12:02.894Z,3.00
2019-01-10T18:17:08.019Z,3.00
2019-01-10T18:22:13.094Z,3.00
2019-01-10T18:27:18.232Z,3.00
2019-01-10T18:32:23.248Z,3.00
2019-01-10T18:37:28.317Z,3.10
2019-01-10T18:42:33.326Z,3.20
2019-01-10T18:47:38.422Z,3.10
2019-01-10T18:52:43.429Z,3.20
2019-01-10T18:57:48.531Z,3.20
2019-01-10T19:02:53.963Z,3.20
2019-01-10T19:07:59.339Z,3.10
2019-01-10T19:13:04.345Z,3.20
2019-01-10T19:18:09.345Z,3.10
2019-01-10T19:23:14.379Z,3.10
2019-01-10T19:28:19.393Z,3.10
2019-01-10T19:33:24.383Z,3.10
2019-01-10T19:38:29.392Z,3.10
2019-01-10T19:43:35.870Z,3.10
2019-01-10T19:48:40.964Z,3.10
2019-01-10T19:53:46.014Z,3.10
2019-01-10T19:58:51.021Z,3.10
2019-01-10T20:03:56.015Z,3.10
2019-01-10T20:09:01.013Z,3.20
2019-01-10T20:14:06.350Z,3.20
2019-01-10T20:19:11.659Z,3.20
2019-01-10T20:24:16.653Z,3.20
2019-01-10T20:29:22.372Z,3.20
2019-01-10T20:34:27.360Z,3.20
2019-01-10T20:39:32.421Z,3.30
2019-01-10T20:44:37.408Z,3.30
2019-01-10T20:49:42.405Z,3.20
2019-01-10T20:54:47.436Z,3.30
2019-01-10T20:59:52.457Z,3.30
2019-01-10T21:04:57.437Z,3.30
2019-01-10T21:10:02.549Z,3.30
2019-01-10T21:15:10.742Z,3.30
2019-01-10T21:20:15.752Z,3.20
2019-01-10T21:25:20.758Z,3.30
2019-01-10T21:30:26.116Z,3.30
2019-01-10T21:35:31.426Z,3.30
2019-01-10T21:40:36.424Z,3.20
2019-01-10T21:45:41.424Z,3.20
2019-01-10T21:50:46.459Z,3.20
2019-01-10T21:55:51.469Z,3.20
2019-01-10T22:00:56.492Z,3.30
2019-01-10T22:06:01.476Z,3.30
2019-01-10T22:11:06.500Z,3.30
2019-01-10T22:16:11.511Z,3.20
2019-01-10T22:21:16.892Z,3.30
2019-01-10T22:26:22.162Z,3.30
2019-01-10T22:31:27.159Z,3.30
2019-01-10T22:36:32.180Z,3.30
2019-01-10T22:41:37.167Z,3.30
2019-01-10T22:46:42.241Z,3.30
2019-01-10T22:51:47.517Z,3.30
2019-01-10T22:56:52.529Z,3.30
2019-01-10T23:01:59.928Z,3.30
2019-01-10T23:07:08.117Z,3.30
2019-01-10T23:12:13.113Z,3.30
2019-01-10T23:17:18.117Z,3.40
2019-01-10T23:22:23.202Z,3.40
2019-01-10T23:27:28.204Z,3.30
2019-01-10T23:32:33.216Z,3.30
2019-01-10T23:37:38.877Z,3.30
2019-01-10T23:42:44.041Z,3.30
2019-01-10T23:47:48.992Z,3.40
2019-01-10T23:52:54.032Z,3.40
2019-01-10T23:57:59.020Z,3.40
